Decoded Metar for LFCR (RODEZ in FRANCE) (IATA:RDZ) | Meteo·Mobile Aviation Weather
aviador You're here:

LFCR Decoded Metar

RODEZ in FRANCE
Report Time2019-09-21 09:00:00
UTC Time2019-09-21 09:33:36
Flight Rules mvfr MVFR
Wind120° at 24 kt
W.Decomp.*RWY 13: 23.6 kt HW 4.2 kt LCW
Visibility9999 m
Phenomena:N/A
Clouds:Broken 020 Hf
Broken 130 Hf
Expected CloudBase > 2,000 ft AGL from Temp-Dew spread
Ceiling2,000 ft
Temp19°C (ISA +8)
Dew Point14°C (73% RH)
AAT11.6°C
QNH1016 hPa
Density Alt2,933 ft
Elevation1,903 ft
Report Wrong Elevation
Raw Report
LFCR 210900Z AUTO 12024KT 9999 BKN020 BKN130 19/14 Q1016 TEMPO
13020G30KT BKN025TCU=

Extra information for LFCR:More info

Metar Taf Metar & Taf Last 4 Metars F.Rules Stats Wind Profile Meteogram Temp Stats Airport Information Weather charts Add Link Nearby VenuesMetar ALERT Operation Metar Decoded Social comments